Gallina — 9VGC4 — position and weather

sailwx.info

Track history (hours):
 
Tides and Currents Weather Stations Pressure Air Temp Water Temp Dewpoint Dewpoint Depression Visibility Wind Speed Wind Dir Waves Ship Positions

Gallina

Last reported at 2017-Jul-19 04:27 UTC. Time now 2017-Aug-18 23:36 UTC.
Position S 32°40' W 071°47'.
Warning: this ship's position is 30 days out of date.

Type: Ship (hazmat cat A). MMSI: 564646000.

Date/timePositionNaut miles runAvg speedWind from/ knotsBaromVisibWave heightAir tempDewpointWater temp
2017-Jul-19 04:27S 32°40' W 071°47'715.6
2017-Jul-19 04:01S 32°43' W 071°39'611.4
2017-Jul-19 03:30S 32°44' W 071°32'2 0.1
2017-Jul-17 16:40S 32°46' W 071°30'1 1.5
2017-Jul-17 16:11S 32°45' W 071°31'1 3.9
2017-Jul-17 15:59S 32°45' W 071°32'2 4.7
2017-Jul-17 15:30S 32°45' W 071°35'510.6
2017-Jul-17 15:00S 32°44' W 071°41'8 6.8
2017-Jul-17 13:47S 32°42' W 071°50'4 6.3
2017-Jul-17 13:07S 32°46' W 071°52'1 2.6
2017-Jul-17 12:54S 32°46' W 071°53'2 4.3
2017-Jul-17 12:30S 32°46' W 071°51'1412.8
2017-Jul-17 11:27S 32°55' W 072°03'  
Track history (hours):
 
Tides and Currents Weather Stations Pressure Air Temp Water Temp Dewpoint Dewpoint Depression Visibility Wind Speed Wind Dir Waves Ship Positions

Gallina

Last reported at 2017-Jul-19 04:27 UTC. Time now 2017-Aug-18 23:36 UTC.
Position S 32°40' W 071°47'.
Warning: this ship's position is 30 days out of date.

Type: Ship (hazmat cat A). MMSI: 564646000.

Date/timePositionNaut miles runAvg speedWind from/ knotsBaromVisibWave heightAir tempDewpointWater temp
2017-Jul-19 04:27S 32°40' W 071°47'715.6
2017-Jul-19 04:01S 32°43' W 071°39'611.4
2017-Jul-19 03:30S 32°44' W 071°32'2 0.1
2017-Jul-17 16:40S 32°46' W 071°30'1 1.5
2017-Jul-17 16:11S 32°45' W 071°31'1 3.9
2017-Jul-17 15:59S 32°45' W 071°32'2 4.7
2017-Jul-17 15:30S 32°45' W 071°35'510.6
2017-Jul-17 15:00S 32°44' W 071°41'8 6.8
2017-Jul-17 13:47S 32°42' W 071°50'4 6.3
2017-Jul-17 13:07S 32°46' W 071°52'1 2.6
2017-Jul-17 12:54S 32°46' W 071°53'2 4.3
2017-Jul-17 12:30S 32°46' W 071°51'1412.8
2017-Jul-17 11:27S 32°55' W 072°03'  

Dump ship's entire track history